createdAt,value
2022-10-17T00:02:11.795Z,12.16
2022-10-17T00:06:14.833Z,12.15
2022-10-17T00:10:16.893Z,12.14
2022-10-17T00:14:18.795Z,12.09
2022-10-17T00:18:20.816Z,12.10
2022-10-17T00:22:22.649Z,12.13
2022-10-17T00:26:24.604Z,12.17
2022-10-17T00:30:26.689Z,12.09
2022-10-17T00:34:30.499Z,11.97
2022-10-17T00:38:32.353Z,11.83
2022-10-17T00:42:35.034Z,11.78
2022-10-17T00:46:38.550Z,11.79
2022-10-17T00:50:47.602Z,11.82
2022-10-17T00:54:55.467Z,11.89
2022-10-17T00:58:57.612Z,11.84
2022-10-17T01:03:00.052Z,11.78
2022-10-17T01:07:01.892Z,11.75
2022-10-17T01:11:06.715Z,11.72
2022-10-17T01:15:13.335Z,11.59
2022-10-17T01:19:37.099Z,11.55
2022-10-17T01:24:02.160Z,11.48
2022-10-17T01:28:18.241Z,11.38
2022-10-17T01:32:29.041Z,11.35
2022-10-17T01:36:43.777Z,11.29
2022-10-17T01:41:10.535Z,11.16
2022-10-17T01:45:18.769Z,11.05
2022-10-17T01:49:24.325Z,10.98
2022-10-17T01:53:33.378Z,10.94
2022-10-17T01:57:44.702Z,10.95
2022-10-17T02:01:49.085Z,10.92
2022-10-17T02:05:51.269Z,11.00
2022-10-17T02:09:53.128Z,10.98
2022-10-17T02:14:22.653Z,10.93
2022-10-17T02:18:30.370Z,10.92
2022-10-17T02:22:56.469Z,10.90
2022-10-17T02:27:16.561Z,10.91
2022-10-17T02:31:31.179Z,10.95
2022-10-17T02:35:38.175Z,10.92
2022-10-17T02:39:42.502Z,10.91
2022-10-17T02:43:49.667Z,10.88
2022-10-17T02:48:26.334Z,10.87
2022-10-17T02:52:34.436Z,10.88
2022-10-17T02:56:46.075Z,10.84
2022-10-17T03:00:48.749Z,10.77
2022-10-17T03:04:50.773Z,10.71
2022-10-17T03:08:52.614Z,10.66
2022-10-17T03:12:55.509Z,10.64
2022-10-17T03:16:58.507Z,10.67
2022-10-17T03:21:01.244Z,10.70
2022-10-17T03:25:03.478Z,10.77
2022-10-17T03:29:05.503Z,10.80
2022-10-17T03:33:07.774Z,10.81
2022-10-17T03:37:09.785Z,10.81
2022-10-17T03:41:12.497Z,10.78
2022-10-17T03:45:14.605Z,10.75
2022-10-17T03:49:16.981Z,10.69
2022-10-17T03:53:19.276Z,10.60
2022-10-17T03:57:21.255Z,10.53
2022-10-17T04:01:23.702Z,10.41
2022-10-17T04:05:25.912Z,10.39
2022-10-17T04:09:28.526Z,10.42
2022-10-17T04:13:56.231Z,10.44
2022-10-17T04:17:58.523Z,10.35
2022-10-17T04:22:02.640Z,10.28
2022-10-17T04:26:06.546Z,10.19
2022-10-17T04:30:09.479Z,10.18
2022-10-17T04:34:13.692Z,10.23
2022-10-17T04:38:15.800Z,10.24
2022-10-17T04:42:18.940Z,10.22
2022-10-17T04:46:21.388Z,10.16
2022-10-17T04:50:23.705Z,10.13
2022-10-17T04:54:45.160Z,10.13
2022-10-17T04:58:48.733Z,10.17
2022-10-17T05:02:50.912Z,10.20
2022-10-17T05:06:52.843Z,10.22
2022-10-17T05:11:25.629Z,10.21
2022-10-17T05:15:28.065Z,10.20
2022-10-17T05:19:30.365Z,10.19
2022-10-17T05:23:32.435Z,10.10
2022-10-17T05:27:34.716Z,10.05
2022-10-17T05:31:36.647Z,10.05
2022-10-17T05:35:38.944Z,10.09
2022-10-17T05:39:41.207Z,10.17
2022-10-17T05:43:44.759Z,10.25
2022-10-17T05:47:48.049Z,10.35
2022-10-17T05:51:51.437Z,10.41
2022-10-17T05:56:01.546Z,10.48
2022-10-17T06:00:05.591Z,10.54
2022-10-17T06:04:16.812Z,10.64
2022-10-17T06:08:19.044Z,10.68
2022-10-17T06:12:21.245Z,10.75
2022-10-17T06:16:24.020Z,10.90
2022-10-17T06:20:26.069Z,11.06
2022-10-17T06:24:28.260Z,11.24
2022-10-17T06:28:30.449Z,11.50
2022-10-17T06:32:33.073Z,11.74
2022-10-17T06:36:35.009Z,11.88
2022-10-17T06:40:36.904Z,12.00
2022-10-17T06:44:39.997Z,12.11
2022-10-17T06:49:05.810Z,12.30
2022-10-17T06:53:17.888Z,12.49
2022-10-17T06:57:25.833Z,12.69
2022-10-17T07:01:54.867Z,12.92
2022-10-17T07:06:00.168Z,13.20
2022-10-17T07:10:03.963Z,13.55
2022-10-17T07:14:06.241Z,13.85
2022-10-17T07:18:08.644Z,14.12
2022-10-17T07:22:11.367Z,14.39
2022-10-17T07:26:17.668Z,14.67
2022-10-17T07:30:21.319Z,14.96
2022-10-17T07:34:30.887Z,15.24
2022-10-17T07:38:33.391Z,15.50
2022-10-17T07:46:42.109Z,15.93
2022-10-17T07:50:44.392Z,16.12
2022-10-17T07:54:46.274Z,16.30
2022-10-17T07:58:48.236Z,16.46
2022-10-17T08:02:50.236Z,16.68
2022-10-17T08:06:56.380Z,16.82
2022-10-17T08:11:06.184Z,16.98
2022-10-17T08:15:09.737Z,17.15
2022-10-17T08:19:12.563Z,17.35
2022-10-17T08:23:14.416Z,17.52
2022-10-17T08:27:20.993Z,17.67
2022-10-17T08:31:23.107Z,17.79
2022-10-17T08:35:25.067Z,17.85
2022-10-17T08:39:27.045Z,17.97
2022-10-17T08:43:57.192Z,18.04
2022-10-17T08:48:02.008Z,18.13
2022-10-17T08:52:22.656Z,18.25
2022-10-17T08:56:47.566Z,18.39
2022-10-17T09:01:11.970Z,18.49
2022-10-17T09:05:26.473Z,18.59
2022-10-17T09:09:45.231Z,18.69
2022-10-17T09:13:49.706Z,18.78
2022-10-17T09:18:08.321Z,18.88
2022-10-17T09:22:16.850Z,18.97
2022-10-17T09:26:18.885Z,19.05
2022-10-17T09:30:40.139Z,19.13
2022-10-17T09:34:43.263Z,19.13
2022-10-17T09:38:52.369Z,19.14
2022-10-17T09:42:54.618Z,19.20
2022-10-17T09:47:14.907Z,19.27
2022-10-17T09:51:25.591Z,19.37
2022-10-17T09:55:39.864Z,19.49
2022-10-17T10:00:04.301Z,19.63
2022-10-17T10:04:17.265Z,19.68
2022-10-17T10:08:19.527Z,19.74
2022-10-17T10:12:32.378Z,19.83
2022-10-17T10:16:42.950Z,19.89
2022-10-17T10:20:46.425Z,19.93
2022-10-17T10:25:13.156Z,19.97
2022-10-17T10:29:35.835Z,20.03
2022-10-17T10:33:45.884Z,20.09
2022-10-17T10:37:55.715Z,20.09
2022-10-17T10:41:58.077Z,20.13
2022-10-17T10:46:00.406Z,20.21
2022-10-17T10:50:17.277Z,20.31
2022-10-17T10:54:25.980Z,20.39
2022-10-17T10:58:42.151Z,20.41
2022-10-17T11:03:11.960Z,20.44
2022-10-17T11:07:33.291Z,20.46
2022-10-17T11:11:40.204Z,20.47
2022-10-17T11:15:52.911Z,20.43
2022-10-17T11:19:55.919Z,20.39
2022-10-17T11:24:27.688Z,20.42
2022-10-17T11:28:30.606Z,20.48
2022-10-17T11:32:45.796Z,20.58
2022-10-17T11:36:52.601Z,20.68
2022-10-17T11:40:58.590Z,20.78
2022-10-17T11:45:13.890Z,20.89
2022-10-17T11:49:23.599Z,21.00
2022-10-17T11:53:29.888Z,21.08
2022-10-17T11:57:50.236Z,21.14
2022-10-17T12:02:04.154Z,21.21
2022-10-17T12:06:30.933Z,21.26
2022-10-17T12:10:45.206Z,21.30
2022-10-17T12:14:47.350Z,21.27
2022-10-17T12:19:24.249Z,21.26
2022-10-17T12:23:31.400Z,21.29
2022-10-17T12:27:45.600Z,21.32
2022-10-17T12:31:47.615Z,21.35
2022-10-17T12:35:51.340Z,21.42
2022-10-17T12:39:53.397Z,21.51
2022-10-17T12:43:55.374Z,21.59
2022-10-17T12:47:57.228Z,21.69
2022-10-17T12:52:25.339Z,21.75
2022-10-17T12:56:47.355Z,21.80
2022-10-17T13:01:23.813Z,21.84
2022-10-17T13:05:33.665Z,21.89
2022-10-17T13:09:44.212Z,21.93
2022-10-17T13:13:48.852Z,21.98
2022-10-17T13:17:59.935Z,22.00
2022-10-17T13:22:07.255Z,22.04
2022-10-17T13:26:22.243Z,22.06
2022-10-17T13:30:29.304Z,22.05
2022-10-17T13:34:33.935Z,22.03
2022-10-17T13:38:38.965Z,22.02
2022-10-17T13:42:44.360Z,21.99
2022-10-17T13:46:46.831Z,21.92
2022-10-17T13:50:52.644Z,21.87
2022-10-17T13:54:55.453Z,21.80
2022-10-17T13:59:04.437Z,21.74
2022-10-17T14:03:06.344Z,21.64
2022-10-17T14:07:23.897Z,21.54
2022-10-17T14:11:39.914Z,21.42
2022-10-17T14:15:45.981Z,21.30
2022-10-17T14:20:14.175Z,21.19
2022-10-17T14:24:23.181Z,21.09
2022-10-17T14:28:25.125Z,20.99
2022-10-17T14:32:30.545Z,20.87
2022-10-17T14:36:43.626Z,20.74
2022-10-17T14:41:04.847Z,20.61
2022-10-17T14:45:25.214Z,20.46
2022-10-17T14:49:37.632Z,20.33
2022-10-17T14:53:40.443Z,20.22
2022-10-17T14:57:45.944Z,20.12
2022-10-17T15:01:48.988Z,20.04
2022-10-17T15:05:52.759Z,19.91
2022-10-17T15:09:54.756Z,19.74
2022-10-17T15:13:56.821Z,19.56
2022-10-17T15:17:59.507Z,19.39
2022-10-17T15:22:01.400Z,19.20
2022-10-17T15:26:03.522Z,19.03
2022-10-17T15:30:21.959Z,18.84
2022-10-17T15:34:23.981Z,18.67
2022-10-17T15:38:25.908Z,18.56
2022-10-17T15:42:29.966Z,18.44
2022-10-17T15:46:35.903Z,18.32
2022-10-17T15:50:37.812Z,18.21
2022-10-17T15:54:40.379Z,18.09
2022-10-17T15:58:42.288Z,17.98
2022-10-17T16:02:45.137Z,17.89
2022-10-17T16:06:47.111Z,17.81
2022-10-17T16:10:49.866Z,17.75
2022-10-17T16:14:51.679Z,17.67
2022-10-17T16:18:54.183Z,17.58
2022-10-17T16:22:59.427Z,17.45
2022-10-17T16:27:01.260Z,17.37
2022-10-17T16:31:03.205Z,17.32
2022-10-17T16:35:07.016Z,17.23
2022-10-17T16:39:08.934Z,17.14
2022-10-17T16:43:12.776Z,17.06
2022-10-17T16:47:15.269Z,17.00
2022-10-17T16:51:18.771Z,16.98
2022-10-17T16:55:20.982Z,16.99
2022-10-17T16:59:24.765Z,16.97
2022-10-17T17:03:26.759Z,16.93
2022-10-17T17:07:29.369Z,16.88
2022-10-17T17:11:32.316Z,16.84
2022-10-17T17:15:34.310Z,16.83
2022-10-17T17:19:36.229Z,16.81
2022-10-17T17:23:40.808Z,16.76
2022-10-17T17:27:42.822Z,16.69
2022-10-17T17:31:44.760Z,16.63
2022-10-17T17:35:47.019Z,16.60
2022-10-17T17:39:48.844Z,16.56
2022-10-17T17:43:51.524Z,16.49
2022-10-17T17:47:54.867Z,16.42
2022-10-17T17:51:56.946Z,16.36
2022-10-17T17:56:07.717Z,16.33
2022-10-17T18:00:10.358Z,16.26
2022-10-17T18:04:12.867Z,16.16
2022-10-17T18:08:14.717Z,16.07
2022-10-17T18:12:16.564Z,16.02
2022-10-17T18:16:18.477Z,15.96
2022-10-17T18:20:24.476Z,15.86
2022-10-17T18:24:26.292Z,15.78
2022-10-17T18:28:29.159Z,15.69
2022-10-17T18:32:32.868Z,15.65
2022-10-17T18:36:35.355Z,15.60
2022-10-17T18:40:39.987Z,15.55
2022-10-17T18:44:41.872Z,15.48
2022-10-17T18:48:45.431Z,15.37
2022-10-17T18:52:48.407Z,15.29
2022-10-17T18:56:53.688Z,15.27
2022-10-17T19:01:02.685Z,15.27
2022-10-17T19:05:04.863Z,15.26
2022-10-17T19:09:09.600Z,15.23
2022-10-17T19:13:11.452Z,15.17
2022-10-17T19:17:13.272Z,15.13
2022-10-17T19:21:19.197Z,15.11
2022-10-17T19:25:23.320Z,15.11
2022-10-17T19:29:27.519Z,15.07
2022-10-17T19:33:31.710Z,15.02
2022-10-17T19:37:33.922Z,14.98
2022-10-17T19:41:36.121Z,14.95
2022-10-17T19:45:37.983Z,14.93
2022-10-17T19:49:39.880Z,14.90
2022-10-17T19:53:42.491Z,14.87
2022-10-17T19:57:44.281Z,14.81
2022-10-17T20:01:46.438Z,14.77
2022-10-17T20:05:48.520Z,14.77
2022-10-17T20:09:50.408Z,14.74
2022-10-17T20:13:53.467Z,14.69
2022-10-17T20:17:56.253Z,14.61
2022-10-17T20:21:58.161Z,14.54
2022-10-17T20:26:08.630Z,14.49
2022-10-17T20:30:21.363Z,14.42
2022-10-17T20:34:23.525Z,14.38
2022-10-17T20:38:25.416Z,14.33
2022-10-17T20:42:28.373Z,14.27
2022-10-17T20:46:36.812Z,14.22
2022-10-17T20:50:39.802Z,14.17
2022-10-17T20:54:41.736Z,14.09
2022-10-17T20:58:43.885Z,14.00
2022-10-17T21:02:46.020Z,13.95
2022-10-17T21:06:48.738Z,13.91
2022-10-17T21:10:50.636Z,13.84
2022-10-17T21:14:52.493Z,13.76
2022-10-17T21:18:55.460Z,13.69
2022-10-17T21:23:00.042Z,13.64
2022-10-17T21:27:01.919Z,13.59
2022-10-17T21:31:14.131Z,13.57
2022-10-17T21:35:16.493Z,13.55
2022-10-17T21:39:18.859Z,13.51
2022-10-17T21:43:21.119Z,13.46
2022-10-17T21:47:25.548Z,13.42
2022-10-17T21:51:29.625Z,13.38
2022-10-17T21:55:31.759Z,13.39
2022-10-17T21:59:35.120Z,13.38
2022-10-17T22:03:42.711Z,13.34
2022-10-17T22:07:47.904Z,13.26
2022-10-17T22:11:54.104Z,13.20
2022-10-17T22:16:10.083Z,13.15
2022-10-17T22:20:11.984Z,13.14
2022-10-17T22:24:15.757Z,13.12
2022-10-17T22:28:17.948Z,13.04
2022-10-17T22:32:22.555Z,13.00
2022-10-17T22:36:24.649Z,12.98
2022-10-17T22:40:26.526Z,12.99
2022-10-17T22:44:28.343Z,12.98
2022-10-17T22:48:30.306Z,12.96
2022-10-17T22:52:32.406Z,12.99
2022-10-17T22:56:34.528Z,13.04
2022-10-17T23:00:38.494Z,13.06
2022-10-17T23:04:41.308Z,13.08
2022-10-17T23:08:43.617Z,13.04
2022-10-17T23:12:45.441Z,12.99
2022-10-17T23:16:47.284Z,12.97
2022-10-17T23:20:49.400Z,12.96
2022-10-17T23:24:51.566Z,12.96
2022-10-17T23:28:54.341Z,12.97
2022-10-17T23:32:56.271Z,12.94
2022-10-17T23:36:58.365Z,12.85
2022-10-17T23:41:00.357Z,12.80
2022-10-17T23:45:03.382Z,12.76
2022-10-17T23:49:06.100Z,12.74
2022-10-17T23:53:08.128Z,12.66
2022-10-17T23:57:10.216Z,12.53
